sensor_id;sensor_type;location;lat;lon;timestamp;temperature;humidity
55026;DHT22;40925;45.666;18.994;2022-12-05T00:42:17;154.50;2252.80
55026;DHT22;40925;45.666;18.994;2022-12-05T00:59:21;154.00;2252.80
55026;DHT22;40925;45.666;18.994;2022-12-05T01:01:48;153.70;2252.80
55026;DHT22;40925;45.666;18.994;2022-12-05T01:04:21;153.60;2252.80
55026;DHT22;40925;45.666;18.994;2022-12-05T01:09:15;153.70;2252.80
55026;DHT22;40925;45.666;18.994;2022-12-05T01:11:42;128.90;2252.80
55026;DHT22;40925;45.666;18.994;2022-12-05T01:14:18;128.80;2252.80
55026;DHT22;40925;45.666;18.994;2022-12-05T01:16:46;128.90;2252.80
55026;DHT22;40925;45.666;18.994;2022-12-05T01:19:32;128.70;2252.80
55026;DHT22;40925;45.666;18.994;2022-12-05T01:21:58;128.70;2252.80
55026;DHT22;40925;45.666;18.994;2022-12-05T01:46:49;128.70;2252.80
55026;DHT22;40925;45.666;18.994;2022-12-05T01:49:28;128.40;2252.80
55026;DHT22;40925;45.666;18.994;2022-12-05T01:51:58;128.30;2252.80
55026;DHT22;40925;45.666;18.994;2022-12-05T01:54:26;128.30;2252.80
55026;DHT22;40925;45.666;18.994;2022-12-05T01:56:58;128.30;2252.80
55026;DHT22;40925;45.666;18.994;2022-12-05T01:59:26;128.30;2252.80
55026;DHT22;40925;45.666;18.994;2022-12-05T02:01:53;128.40;2252.80
55026;DHT22;40925;45.666;18.994;2022-12-05T02:04:19;128.30;2252.80
55026;DHT22;40925;45.666;18.994;2022-12-05T02:06:45;128.40;2252.80
55026;DHT22;40925;45.666;18.994;2022-12-05T02:09:11;128.20;2252.80
55026;DHT22;40925;45.666;18.994;2022-12-05T02:11:52;128.20;2252.80
55026;DHT22;40925;45.666;18.994;2022-12-05T02:19:38;128.40;2252.80
55026;DHT22;40925;45.666;18.994;2022-12-05T02:30:14;128.60;2252.80
55026;DHT22;40925;45.666;18.994;2022-12-05T02:32:50;128.60;2252.80
55026;DHT22;40925;45.666;18.994;2022-12-05T02:40:41;128.90;2252.80
55026;DHT22;40925;45.666;18.994;2022-12-05T02:45:44;153.70;2252.80
55026;DHT22;40925;45.666;18.994;2022-12-05T02:48:13;153.70;2252.80
55026;DHT22;40925;45.666;18.994;2022-12-05T02:50:40;153.70;2252.80
55026;DHT22;40925;45.666;18.994;2022-12-05T02:53:10;153.70;2252.80
55026;DHT22;40925;45.666;18.994;2022-12-05T02:55:39;153.80;2252.80
55026;DHT22;40925;45.666;18.994;2022-12-05T02:58:11;153.80;2252.80
55026;DHT22;40925;45.666;18.994;2022-12-05T03:00:42;153.90;2252.80
55026;DHT22;40925;45.666;18.994;2022-12-05T03:03:14;153.90;2252.80
55026;DHT22;40925;45.666;18.994;2022-12-05T03:06:06;154.10;2252.80
55026;DHT22;40925;45.666;18.994;2022-12-05T03:08:41;154.10;2252.80
55026;DHT22;40925;45.666;18.994;2022-12-05T03:11:08;154.10;2252.80
55026;DHT22;40925;45.666;18.994;2022-12-05T03:13:51;154.00;2252.80
55026;DHT22;40925;45.666;18.994;2022-12-05T03:16:27;154.00;2252.80
55026;DHT22;40925;45.666;18.994;2022-12-05T03:19:16;153.90;2252.80
55026;DHT22;40925;45.666;18.994;2022-12-05T03:21:52;154.00;2252.80
55026;DHT22;40925;45.666;18.994;2022-12-05T03:24:20;154.00;2252.80
55026;DHT22;40925;45.666;18.994;2022-12-05T03:34:43;154.10;2252.80
55026;DHT22;40925;45.666;18.994;2022-12-05T03:40:26;154.10;2252.80
55026;DHT22;40925;45.666;18.994;2022-12-05T03:43:09;154.20;2252.80
55026;DHT22;40925;45.666;18.994;2022-12-05T03:45:57;154.20;2252.80
55026;DHT22;40925;45.666;18.994;2022-12-05T03:51:43;154.30;2252.80
55026;DHT22;40925;45.666;18.994;2022-12-05T03:56:43;154.20;2252.80
55026;DHT22;40925;45.666;18.994;2022-12-05T03:59:22;154.20;2252.80
55026;DHT22;40925;45.666;18.994;2022-12-05T04:01:52;154.30;2252.80
55026;DHT22;40925;45.666;18.994;2022-12-05T04:07:33;154.40;2099.20
55026;DHT22;40925;45.666;18.994;2022-12-05T04:10:04;154.30;2252.80
55026;DHT22;40925;45.666;18.994;2022-12-05T04:12:33;154.30;2252.80
55026;DHT22;40925;45.666;18.994;2022-12-05T04:15:03;154.30;2252.80
55026;DHT22;40925;45.666;18.994;2022-12-05T04:17:41;154.30;2252.80
55026;DHT22;40925;45.666;18.994;2022-12-05T04:22:55;154.30;2252.80
55026;DHT22;40925;45.666;18.994;2022-12-05T04:25:23;154.20;2252.80
55026;DHT22;40925;45.666;18.994;2022-12-05T04:30:47;154.10;2252.80
55026;DHT22;40925;45.666;18.994;2022-12-05T04:33:28;154.10;2252.80
55026;DHT22;40925;45.666;18.994;2022-12-05T04:36:14;154.10;2252.80
55026;DHT22;40925;45.666;18.994;2022-12-05T04:39:05;154.00;2252.80
55026;DHT22;40925;45.666;18.994;2022-12-05T04:41:38;153.90;2252.80
55026;DHT22;40925;45.666;18.994;2022-12-05T04:44:11;153.90;2252.80
55026;DHT22;40925;45.666;18.994;2022-12-05T04:46:40;153.90;2252.80
55026;DHT22;40925;45.666;18.994;2022-12-05T04:49:10;153.70;2252.80
55026;DHT22;40925;45.666;18.994;2022-12-05T04:51:37;153.60;2252.80
55026;DHT22;40925;45.666;18.994;2022-12-05T04:54:12;153.60;2252.80
55026;DHT22;40925;45.666;18.994;2022-12-05T04:56:40;128.90;1868.80
55026;DHT22;40925;45.666;18.994;2022-12-05T04:59:08;128.90;2252.80
55026;DHT22;40925;45.666;18.994;2022-12-05T05:04:18;128.90;2252.80
55026;DHT22;40925;45.666;18.994;2022-12-05T05:06:46;128.90;2252.80
55026;DHT22;40925;45.666;18.994;2022-12-05T05:09:12;128.80;2252.80
55026;DHT22;40925;45.666;18.994;2022-12-05T05:11:38;128.70;2252.80
55026;DHT22;40925;45.666;18.994;2022-12-05T05:14:04;128.80;2252.80
55026;DHT22;40925;45.666;18.994;2022-12-05T05:16:35;128.70;2252.80
55026;DHT22;40925;45.666;18.994;2022-12-05T05:19:01;128.70;2252.80
55026;DHT22;40925;45.666;18.994;2022-12-05T05:21:29;128.80;2252.80
55026;DHT22;40925;45.666;18.994;2022-12-05T05:23:55;128.80;2252.80
55026;DHT22;40925;45.666;18.994;2022-12-05T05:26:21;128.80;2252.80
55026;DHT22;40925;45.666;18.994;2022-12-05T05:28:48;128.80;2252.80
55026;DHT22;40925;45.666;18.994;2022-12-05T05:31:15;128.80;2252.80
55026;DHT22;40925;45.666;18.994;2022-12-05T05:33:41;128.70;2252.80
55026;DHT22;40925;45.666;18.994;2022-12-05T05:36:10;128.70;2252.80
55026;DHT22;40925;45.666;18.994;2022-12-05T05:38:44;128.80;2252.80
55026;DHT22;40925;45.666;18.994;2022-12-05T05:41:18;128.80;2252.80
55026;DHT22;40925;45.666;18.994;2022-12-05T05:43:44;128.90;2252.80
55026;DHT22;40925;45.666;18.994;2022-12-05T05:46:11;128.90;2252.80
55026;DHT22;40925;45.666;18.994;2022-12-05T05:48:37;153.60;2252.80
55026;DHT22;40925;45.666;18.994;2022-12-05T05:51:04;153.70;2252.80
55026;DHT22;40925;45.666;18.994;2022-12-05T05:53:31;153.60;2252.80
55026;DHT22;40925;45.666;18.994;2022-12-05T05:55:56;153.70;2252.80
55026;DHT22;40925;45.666;18.994;2022-12-05T05:58:22;153.60;2252.80
55026;DHT22;40925;45.666;18.994;2022-12-05T06:00:48;153.60;2252.80
55026;DHT22;40925;45.666;18.994;2022-12-05T06:03:13;153.60;2252.80
55026;DHT22;40925;45.666;18.994;2022-12-05T06:05:39;128.90;2252.80
55026;DHT22;40925;45.666;18.994;2022-12-05T06:08:05;128.80;1971.20
55026;DHT22;40925;45.666;18.994;2022-12-05T06:10:31;128.80;2252.80
55026;DHT22;40925;45.666;18.994;2022-12-05T06:12:58;128.80;2252.80
55026;DHT22;40925;45.666;18.994;2022-12-05T06:15:24;128.80;2252.80
55026;DHT22;40925;45.666;18.994;2022-12-05T06:17:50;128.70;2252.80
55026;DHT22;40925;45.666;18.994;2022-12-05T06:20:15;128.70;2252.80
55026;DHT22;40925;45.666;18.994;2022-12-05T06:22:41;128.60;2252.80
55026;DHT22;40925;45.666;18.994;2022-12-05T06:25:07;128.80;2252.80
55026;DHT22;40925;45.666;18.994;2022-12-05T06:27:33;128.80;1996.80
55026;DHT22;40925;45.666;18.994;2022-12-05T06:29:59;128.80;2252.80
55026;DHT22;40925;45.666;18.994;2022-12-05T06:32:27;128.90;2252.80
55026;DHT22;40925;45.666;18.994;2022-12-05T06:34:54;153.70;2252.80
55026;DHT22;40925;45.666;18.994;2022-12-05T06:37:19;153.80;2252.80
55026;DHT22;40925;45.666;18.994;2022-12-05T06:39:45;153.80;2252.80
55026;DHT22;40925;45.666;18.994;2022-12-05T06:42:11;154.00;2252.80
55026;DHT22;40925;45.666;18.994;2022-12-05T06:44:36;153.90;2176.00
55026;DHT22;40925;45.666;18.994;2022-12-05T06:47:02;153.80;2252.80
55026;DHT22;40925;45.666;18.994;2022-12-05T06:49:28;153.90;2252.80
55026;DHT22;40925;45.666;18.994;2022-12-05T06:51:57;154.20;2252.80
55026;DHT22;40925;45.666;18.994;2022-12-05T06:56:49;179.60;2176.00
55026;DHT22;40925;45.666;18.994;2022-12-05T07:01:42;204.80;2252.80
55026;DHT22;40925;45.666;18.994;2022-12-05T07:04:16;205.10;2252.80
55026;DHT22;40925;45.666;18.994;2022-12-05T07:06:45;230.50;2252.80
55026;DHT22;40925;45.666;18.994;2022-12-05T07:09:11;231.20;2252.80
55026;DHT22;40925;45.666;18.994;2022-12-05T07:11:37;256.30;2252.80
55026;DHT22;40925;45.666;18.994;2022-12-05T07:14:04;256.70;2252.80
55026;DHT22;40925;45.666;18.994;2022-12-05T07:16:30;256.50;2252.80
55026;DHT22;40925;45.666;18.994;2022-12-05T07:21:22;282.20;2278.40
55026;DHT22;40925;45.666;18.994;2022-12-05T07:23:48;307.70;2304.00
55026;DHT22;40925;45.666;18.994;2022-12-05T07:26:17;332.90;2329.60
55026;DHT22;40925;45.666;18.994;2022-12-05T07:28:44;332.90;2329.60
55026;DHT22;40925;45.666;18.994;2022-12-05T07:31:13;333.30;2329.60
55026;DHT22;40925;45.666;18.994;2022-12-05T07:33:39;333.40;2329.60
55026;DHT22;40925;45.666;18.994;2022-12-05T07:36:08;308.10;2304.00
55026;DHT22;40925;45.666;18.994;2022-12-05T07:38:34;307.50;2304.00
55026;DHT22;40925;45.666;18.994;2022-12-05T07:41:04;308.00;2304.00
55026;DHT22;40925;45.666;18.994;2022-12-05T07:43:30;333.40;2329.60
55026;DHT22;40925;45.666;18.994;2022-12-05T07:46:03;358.90;2329.60
55026;DHT22;40925;45.666;18.994;2022-12-05T07:48:29;359.00;2329.60
55026;DHT22;40925;45.666;18.994;2022-12-05T07:50:58;358.50;2329.60
55026;DHT22;40925;45.666;18.994;2022-12-05T07:53:24;333.30;2329.60
55026;DHT22;40925;45.666;18.994;2022-12-05T07:55:50;332.90;2329.60
55026;DHT22;40925;45.666;18.994;2022-12-05T07:58:16;308.00;2304.00
55026;DHT22;40925;45.666;18.994;2022-12-05T08:00:41;308.00;2304.00
55026;DHT22;40925;45.666;18.994;2022-12-05T08:03:07;307.70;2304.00
55026;DHT22;40925;45.666;18.994;2022-12-05T08:05:32;333.40;2329.60
55026;DHT22;40925;45.666;18.994;2022-12-05T08:07:58;359.00;2329.60
55026;DHT22;40925;45.666;18.994;2022-12-05T08:10:24;359.10;2329.60
55026;DHT22;40925;45.666;18.994;2022-12-05T08:12:49;359.20;2329.60
55026;DHT22;40925;45.666;18.994;2022-12-05T08:15:15;384.30;2329.60
55026;DHT22;40925;45.666;18.994;2022-12-05T08:17:41;384.20;2329.60
55026;DHT22;40925;45.666;18.994;2022-12-05T08:20:07;359.10;2329.60
55026;DHT22;40925;45.666;18.994;2022-12-05T08:22:33;358.60;2329.60
55026;DHT22;40925;45.666;18.994;2022-12-05T08:24:58;358.60;2329.60
55026;DHT22;40925;45.666;18.994;2022-12-05T08:27:24;358.40;2329.60
55026;DHT22;40925;45.666;18.994;2022-12-05T08:29:50;358.40;2329.60
55026;DHT22;40925;45.666;18.994;2022-12-05T08:32:15;358.40;2329.60
55026;DHT22;40925;45.666;18.994;2022-12-05T08:34:41;333.30;2329.60
55026;DHT22;40925;45.666;18.994;2022-12-05T08:37:07;333.30;2329.60
55026;DHT22;40925;45.666;18.994;2022-12-05T08:39:32;308.10;2304.00
55026;DHT22;40925;45.666;18.994;2022-12-05T08:41:58;307.60;2304.00
55026;DHT22;40925;45.666;18.994;2022-12-05T08:44:24;282.50;2278.40
55026;DHT22;40925;45.666;18.994;2022-12-05T08:46:50;281.90;2278.40
55026;DHT22;40925;45.666;18.994;2022-12-05T08:49:16;281.60;2278.40
55026;DHT22;40925;45.666;18.994;2022-12-05T08:51:43;256.90;2252.80
55026;DHT22;40925;45.666;18.994;2022-12-05T08:54:08;256.70;2252.80
55026;DHT22;40925;45.666;18.994;2022-12-05T08:56:34;256.60;2252.80
55026;DHT22;40925;45.666;18.994;2022-12-05T08:59:00;256.70;2252.80
55026;DHT22;40925;45.666;18.994;2022-12-05T09:01:29;281.60;2278.40
55026;DHT22;40925;45.666;18.994;2022-12-05T09:03:57;281.80;2278.40
55026;DHT22;40925;45.666;18.994;2022-12-05T09:06:25;281.90;2278.40
55026;DHT22;40925;45.666;18.994;2022-12-05T09:09:00;281.90;2278.40
55026;DHT22;40925;45.666;18.994;2022-12-05T09:11:28;281.90;2278.40
55026;DHT22;40925;45.666;18.994;2022-12-05T09:13:55;281.90;2278.40
55026;DHT22;40925;45.666;18.994;2022-12-05T09:16:24;282.10;2278.40
55026;DHT22;40925;45.666;18.994;2022-12-05T09:18:51;282.20;2278.40
55026;DHT22;40925;45.666;18.994;2022-12-05T09:21:20;282.40;2278.40
55026;DHT22;40925;45.666;18.994;2022-12-05T09:23:46;307.20;2304.00
55026;DHT22;40925;45.666;18.994;2022-12-05T09:26:14;307.50;2304.00
55026;DHT22;40925;45.666;18.994;2022-12-05T09:28:41;307.90;2304.00
55026;DHT22;40925;45.666;18.994;2022-12-05T09:31:13;307.90;2304.00
55026;DHT22;40925;45.666;18.994;2022-12-05T09:33:39;332.80;2329.60
55026;DHT22;40925;45.666;18.994;2022-12-05T09:36:07;333.10;2329.60
55026;DHT22;40925;45.666;18.994;2022-12-05T09:38:33;333.30;2329.60
55026;DHT22;40925;45.666;18.994;2022-12-05T09:49:12;333.40;2329.60
55026;DHT22;40925;45.666;18.994;2022-12-05T09:51:43;333.30;2329.60
55026;DHT22;40925;45.666;18.994;2022-12-05T09:54:11;333.20;2329.60
55026;DHT22;40925;45.666;18.994;2022-12-05T09:56:38;333.10;2329.60
55026;DHT22;40925;45.666;18.994;2022-12-05T09:59:12;333.40;2329.60
55026;DHT22;40925;45.666;18.994;2022-12-05T10:07:37;333.50;2329.60
55026;DHT22;40925;45.666;18.994;2022-12-05T10:13:04;333.40;2329.60
55026;DHT22;40925;45.666;18.994;2022-12-05T10:15:39;333.60;2329.60
55026;DHT22;40925;45.666;18.994;2022-12-05T10:18:12;409.80;2355.20
55026;DHT22;40925;45.666;18.994;2022-12-05T10:20:50;436.00;2355.20
55026;DHT22;40925;45.666;18.994;2022-12-05T10:23:41;486.90;2201.60
55026;DHT22;40925;45.666;18.994;2022-12-05T10:26:10;563.50;1843.20
55026;DHT22;40925;45.666;18.994;2022-12-05T10:31:09;615.10;1433.60
55026;DHT22;40925;45.666;18.994;2022-12-05T10:33:40;640.30;1331.20
55026;DHT22;40925;45.666;18.994;2022-12-05T10:36:12;665.90;1280.00
55026;DHT22;40925;45.666;18.994;2022-12-05T10:38:38;691.50;1203.20
55026;DHT22;40925;45.666;18.994;2022-12-05T10:41:10;691.80;1126.40
55026;DHT22;40925;45.666;18.994;2022-12-05T10:43:39;640.60;1177.60
55026;DHT22;40925;45.666;18.994;2022-12-05T10:46:06;615.20;1254.40
55026;DHT22;40925;45.666;18.994;2022-12-05T10:48:38;640.10;1228.80
55026;DHT22;40925;45.666;18.994;2022-12-05T10:51:05;666.40;1177.60
55026;DHT22;40925;45.666;18.994;2022-12-05T10:53:46;691.90;1100.80
55026;DHT22;40925;45.666;18.994;2022-12-05T10:58:59;666.40;1126.40
55026;DHT22;40925;45.666;18.994;2022-12-05T11:01:25;615.10;1228.80
55026;DHT22;40925;45.666;18.994;2022-12-05T11:03:55;614.40;1331.20
55026;DHT22;40925;45.666;18.994;2022-12-05T11:06:25;614.90;1280.00
55026;DHT22;40925;45.666;18.994;2022-12-05T11:08:53;614.80;1280.00
55026;DHT22;40925;45.666;18.994;2022-12-05T11:11:22;588.80;1382.40
55026;DHT22;40925;45.666;18.994;2022-12-05T11:14:04;614.40;1331.20
55026;DHT22;40925;45.666;18.994;2022-12-05T11:16:36;614.60;1280.00
55026;DHT22;40925;45.666;18.994;2022-12-05T11:19:27;589.60;1331.20
55026;DHT22;40925;45.666;18.994;2022-12-05T11:21:54;640.30;1280.00
55026;DHT22;40925;45.666;18.994;2022-12-05T11:26:56;614.40;1305.60
55026;DHT22;40925;45.666;18.994;2022-12-05T11:29:36;640.20;1228.80
55026;DHT22;40925;45.666;18.994;2022-12-05T11:32:05;666.20;1177.60
55026;DHT22;40925;45.666;18.994;2022-12-05T11:34:41;666.40;1152.00
55026;DHT22;40925;45.666;18.994;2022-12-05T11:37:14;666.30;1152.00
55026;DHT22;40925;45.666;18.994;2022-12-05T11:39:42;615.30;1228.80
55026;DHT22;40925;45.666;18.994;2022-12-05T11:42:15;614.50;1280.00
55026;DHT22;40925;45.666;18.994;2022-12-05T11:45:29;614.70;1305.60
55026;DHT22;40925;45.666;18.994;2022-12-05T11:51:06;666.50;1100.80
55026;DHT22;40925;45.666;18.994;2022-12-05T11:56:26;666.40;1126.40
55026;DHT22;40925;45.666;18.994;2022-12-05T12:12:11;691.40;1177.60
55026;DHT22;40925;45.666;18.994;2022-12-05T12:17:37;717.00;1049.60
55026;DHT22;40925;45.666;18.994;2022-12-05T12:28:44;742.40;1049.60
55026;DHT22;40925;45.666;18.994;2022-12-05T12:33:49;717.30;1049.60
55026;DHT22;40925;45.666;18.994;2022-12-05T12:39:39;692.10;1049.60
55026;DHT22;40925;45.666;18.994;2022-12-05T12:50:25;717.00;1049.60
55026;DHT22;40925;45.666;18.994;2022-12-05T12:53:08;691.90;1049.60
55026;DHT22;40925;45.666;18.994;2022-12-05T13:04:14;691.30;1126.40
55026;DHT22;40925;45.666;18.994;2022-12-05T13:11:46;640.50;1203.20
55026;DHT22;40925;45.666;18.994;2022-12-05T13:14:15;640.00;1254.40
55026;DHT22;40925;45.666;18.994;2022-12-05T13:16:44;589.20;1382.40
55026;DHT22;40925;45.666;18.994;2022-12-05T13:19:39;563.60;1433.60
55026;DHT22;40925;45.666;18.994;2022-12-05T13:22:07;538.40;1459.20
55026;DHT22;40925;45.666;18.994;2022-12-05T13:24:34;564.00;1408.00
55026;DHT22;40925;45.666;18.994;2022-12-05T13:27:04;589.60;1356.80
55026;DHT22;40925;45.666;18.994;2022-12-05T13:32:30;589.50;1382.40
55026;DHT22;40925;45.666;18.994;2022-12-05T13:37:31;512.60;1510.40
55026;DHT22;40925;45.666;18.994;2022-12-05T13:43:10;460.90;1868.80
55026;DHT22;40925;45.666;18.994;2022-12-05T13:45:36;435.20;2201.60
55026;DHT22;40925;45.666;18.994;2022-12-05T13:48:25;410.00;2355.20
55026;DHT22;40925;45.666;18.994;2022-12-05T13:51:08;384.70;2329.60
55026;DHT22;40925;45.666;18.994;2022-12-05T13:53:41;359.30;2329.60
55026;DHT22;40925;45.666;18.994;2022-12-05T14:22:47;333.10;2329.60
55026;DHT22;40925;45.666;18.994;2022-12-05T14:25:41;333.20;2329.60
55026;DHT22;40925;45.666;18.994;2022-12-05T14:39:43;333.10;2329.60
55026;DHT22;40925;45.666;18.994;2022-12-05T14:44:57;333.10;2329.60
55026;DHT22;40925;45.666;18.994;2022-12-05T14:47:26;333.10;2329.60
55026;DHT22;40925;45.666;18.994;2022-12-05T15:01:29;307.90;2304.00
55026;DHT22;40925;45.666;18.994;2022-12-05T15:06:28;307.60;2304.00
55026;DHT22;40925;45.666;18.994;2022-12-05T15:08:56;307.60;2304.00
55026;DHT22;40925;45.666;18.994;2022-12-05T15:11:24;307.50;2304.00
55026;DHT22;40925;45.666;18.994;2022-12-05T15:14:21;307.40;2304.00
55026;DHT22;40925;45.666;18.994;2022-12-05T15:16:49;307.20;2304.00
55026;DHT22;40925;45.666;18.994;2022-12-05T15:19:23;282.50;2278.40
55026;DHT22;40925;45.666;18.994;2022-12-05T15:21:57;282.30;2278.40
55026;DHT22;40925;45.666;18.994;2022-12-05T15:24:23;282.30;2278.40
55026;DHT22;40925;45.666;18.994;2022-12-05T15:26:51;282.10;2278.40
55026;DHT22;40925;45.666;18.994;2022-12-05T15:31:59;281.70;2278.40
55026;DHT22;40925;45.666;18.994;2022-12-05T15:40:25;256.80;2252.80
55026;DHT22;40925;45.666;18.994;2022-12-05T15:42:48;256.40;2252.80
55026;DHT22;40925;45.666;18.994;2022-12-05T15:45:15;256.50;2252.80
55026;DHT22;40925;45.666;18.994;2022-12-05T15:47:45;256.40;2252.80
55026;DHT22;40925;45.666;18.994;2022-12-05T15:52:49;256.40;1894.40
55026;DHT22;40925;45.666;18.994;2022-12-05T15:55:24;256.30;2252.80
55026;DHT22;40925;45.666;18.994;2022-12-05T16:00:23;256.30;2252.80
55026;DHT22;40925;45.666;18.994;2022-12-05T16:05:43;256.30;2252.80
55026;DHT22;40925;45.666;18.994;2022-12-05T16:08:10;256.20;2252.80
55026;DHT22;40925;45.666;18.994;2022-12-05T16:10:36;256.20;2073.60
55026;DHT22;40925;45.666;18.994;2022-12-05T16:13:10;256.20;1945.60
55026;DHT22;40925;45.666;18.994;2022-12-05T16:15:37;256.10;1971.20
55026;DHT22;40925;45.666;18.994;2022-12-05T16:18:29;256.10;2252.80
55026;DHT22;40925;45.666;18.994;2022-12-05T16:20:55;256.00;2252.80
55026;DHT22;40925;45.666;18.994;2022-12-05T16:23:30;231.30;2252.80
55026;DHT22;40925;45.666;18.994;2022-12-05T16:38:50;256.10;2252.80
55026;DHT22;40925;45.666;18.994;2022-12-05T16:41:32;256.00;2252.80
55026;DHT22;40925;45.666;18.994;2022-12-05T16:43:57;231.00;1996.80
55026;DHT22;40925;45.666;18.994;2022-12-05T16:52:07;230.90;2252.80
55026;DHT22;40925;45.666;18.994;2022-12-05T16:54:37;230.90;2252.80
55026;DHT22;40925;45.666;18.994;2022-12-05T16:57:03;230.80;2227.20
55026;DHT22;40925;45.666;18.994;2022-12-05T16:59:37;230.80;2048.00
55026;DHT22;40925;45.666;18.994;2022-12-05T17:02:10;230.80;2252.80
55026;DHT22;40925;45.666;18.994;2022-12-05T17:12:05;230.90;2252.80
55026;DHT22;40925;45.666;18.994;2022-12-05T17:14:32;230.70;2252.80
55026;DHT22;40925;45.666;18.994;2022-12-05T17:16:57;230.60;2252.80
55026;DHT22;40925;45.666;18.994;2022-12-05T17:19:23;230.50;2252.80
55026;DHT22;40925;45.666;18.994;2022-12-05T17:21:49;205.70;2252.80
55026;DHT22;40925;45.666;18.994;2022-12-05T17:24:16;205.60;2252.80
55026;DHT22;40925;45.666;18.994;2022-12-05T17:26:42;205.60;2252.80
55026;DHT22;40925;45.666;18.994;2022-12-05T17:29:08;205.50;2252.80
55026;DHT22;40925;45.666;18.994;2022-12-05T17:31:34;205.40;2252.80
55026;DHT22;40925;45.666;18.994;2022-12-05T17:34:01;205.30;2252.80
55026;DHT22;40925;45.666;18.994;2022-12-05T17:36:26;205.30;2252.80
55026;DHT22;40925;45.666;18.994;2022-12-05T17:38:52;205.30;2252.80
55026;DHT22;40925;45.666;18.994;2022-12-05T17:41:22;205.30;2252.80
55026;DHT22;40925;45.666;18.994;2022-12-05T17:43:48;205.20;2252.80
55026;DHT22;40925;45.666;18.994;2022-12-05T17:46:17;205.20;2252.80
55026;DHT22;40925;45.666;18.994;2022-12-05T17:51:10;205.30;2252.80
55026;DHT22;40925;45.666;18.994;2022-12-05T17:53:37;205.00;2252.80
55026;DHT22;40925;45.666;18.994;2022-12-05T17:56:04;205.00;2252.80
55026;DHT22;40925;45.666;18.994;2022-12-05T18:08:14;205.20;2252.80
55026;DHT22;40925;45.666;18.994;2022-12-05T18:10:42;205.00;2252.80
55026;DHT22;40925;45.666;18.994;2022-12-05T18:13:09;204.80;2252.80
55026;DHT22;40925;45.666;18.994;2022-12-05T18:15:34;204.80;2252.80
55026;DHT22;40925;45.666;18.994;2022-12-05T18:18:00;205.00;2252.80
55026;DHT22;40925;45.666;18.994;2022-12-05T18:20:31;205.10;2252.80
55026;DHT22;40925;45.666;18.994;2022-12-05T18:22:57;205.10;2252.80
55026;DHT22;40925;45.666;18.994;2022-12-05T18:25:23;205.30;2252.80
55026;DHT22;40925;45.666;18.994;2022-12-05T18:27:49;205.30;2252.80
55026;DHT22;40925;45.666;18.994;2022-12-05T18:30:15;205.30;2252.80
55026;DHT22;40925;45.666;18.994;2022-12-05T18:32:41;205.20;2252.80
55026;DHT22;40925;45.666;18.994;2022-12-05T18:35:07;205.40;2252.80
55026;DHT22;40925;45.666;18.994;2022-12-05T18:37:37;205.30;2252.80
55026;DHT22;40925;45.666;18.994;2022-12-05T18:40:04;205.40;2022.40
55026;DHT22;40925;45.666;18.994;2022-12-05T18:42:30;205.40;2252.80
55026;DHT22;40925;45.666;18.994;2022-12-05T18:44:56;205.40;2252.80
55026;DHT22;40925;45.666;18.994;2022-12-05T18:47:22;205.20;2252.80
55026;DHT22;40925;45.666;18.994;2022-12-05T18:49:49;205.10;2252.80
55026;DHT22;40925;45.666;18.994;2022-12-05T18:52:14;205.00;2252.80
55026;DHT22;40925;45.666;18.994;2022-12-05T18:54:40;204.90;2252.80
55026;DHT22;40925;45.666;18.994;2022-12-05T18:57:06;204.80;2252.80
55026;DHT22;40925;45.666;18.994;2022-12-05T18:59:32;204.80;2252.80
55026;DHT22;40925;45.666;18.994;2022-12-05T19:01:57;205.00;2252.80
55026;DHT22;40925;45.666;18.994;2022-12-05T19:04:27;204.90;2252.80
55026;DHT22;40925;45.666;18.994;2022-12-05T19:06:57;204.90;2252.80
55026;DHT22;40925;45.666;18.994;2022-12-05T19:09:28;204.80;2252.80
55026;DHT22;40925;45.666;18.994;2022-12-05T19:11:55;204.80;2252.80
55026;DHT22;40925;45.666;18.994;2022-12-05T19:14:23;180.00;2252.80
55026;DHT22;40925;45.666;18.994;2022-12-05T19:16:50;180.10;2252.80
55026;DHT22;40925;45.666;18.994;2022-12-05T19:19:17;204.80;2252.80
55026;DHT22;40925;45.666;18.994;2022-12-05T19:21:43;204.90;1894.40
55026;DHT22;40925;45.666;18.994;2022-12-05T19:24:12;204.80;2252.80
55026;DHT22;40925;45.666;18.994;2022-12-05T19:26:38;204.90;2252.80
55026;DHT22;40925;45.666;18.994;2022-12-05T19:29:04;180.10;2252.80
55026;DHT22;40925;45.666;18.994;2022-12-05T19:31:30;204.80;2252.80
55026;DHT22;40925;45.666;18.994;2022-12-05T19:34:00;180.10;2252.80
55026;DHT22;40925;45.666;18.994;2022-12-05T19:36:31;204.80;2252.80
55026;DHT22;40925;45.666;18.994;2022-12-05T19:38:58;204.80;2252.80
55026;DHT22;40925;45.666;18.994;2022-12-05T19:41:28;204.90;2252.80
55026;DHT22;40925;45.666;18.994;2022-12-05T19:43:57;204.80;2252.80
55026;DHT22;40925;45.666;18.994;2022-12-05T19:46:24;180.10;2022.40
55026;DHT22;40925;45.666;18.994;2022-12-05T19:48:53;180.00;1996.80
55026;DHT22;40925;45.666;18.994;2022-12-05T19:51:19;179.90;2252.80
55026;DHT22;40925;45.666;18.994;2022-12-05T19:53:45;179.90;2252.80
55026;DHT22;40925;45.666;18.994;2022-12-05T19:56:17;179.90;2048.00
55026;DHT22;40925;45.666;18.994;2022-12-05T19:58:44;179.80;2252.80
55026;DHT22;40925;45.666;18.994;2022-12-05T20:01:18;179.70;2252.80
55026;DHT22;40925;45.666;18.994;2022-12-05T20:03:55;179.40;2252.80
55026;DHT22;40925;45.666;18.994;2022-12-05T20:11:19;179.40;2252.80
55026;DHT22;40925;45.666;18.994;2022-12-05T20:13:46;154.50;2252.80
55026;DHT22;40925;45.666;18.994;2022-12-05T20:28:29;154.20;2252.80
55026;DHT22;40925;45.666;18.994;2022-12-05T20:31:13;153.90;2252.80
55026;DHT22;40925;45.666;18.994;2022-12-05T20:33:39;153.90;2252.80
55026;DHT22;40925;45.666;18.994;2022-12-05T20:36:08;153.80;2252.80
55026;DHT22;40925;45.666;18.994;2022-12-05T20:38:35;153.80;2252.80
55026;DHT22;40925;45.666;18.994;2022-12-05T20:41:03;154.00;2252.80
55026;DHT22;40925;45.666;18.994;2022-12-05T20:43:29;153.80;2252.80
55026;DHT22;40925;45.666;18.994;2022-12-05T20:45:56;153.70;2252.80